VVY YSBK-YSSY
Flight info
| Callsign | VVY |
|---|---|
| Flight time | 0h -3m |
| Altitude | 1000 |
| Route | RSH DCT RKWC DCT CBY |
| Aircraft | R66/L-SFG/C |
Departure
| Time | 2026-05-08 10:55 |
|---|---|
| Airport | Sydney Bankstown Airport (YSBK) |
Arrival
| Time | 2026-05-08 10:52 |
|---|---|
| Airport | Sydney Kingsford Smith International Airport (YSSY) |
| Time | Latitude | Longitude | Altitude | Speed | Heading |
|---|---|---|---|---|---|
| 2026-05-08 10:52 | -33.92111 | 150.99184 | 26 ft | 0 kts | 294° |
| 2026-05-08 10:53 | -33.92083 | 150.99197 | 52 ft | 17 kts | 249° |
| 2026-05-08 10:53 | -33.92068 | 150.99289 | 110 ft | 5 kts | 262° |
| 2026-05-08 10:53 | -33.92061 | 150.99317 | 26 ft | 0 kts | 210° |
| 2026-05-08 10:54 | -33.92063 | 150.99332 | 93 ft | 5 kts | 277° |
| 2026-05-08 10:54 | -33.92046 | 150.99295 | 258 ft | 5 kts | 290° |
| 2026-05-08 10:54 | -33.92018 | 150.99271 | 370 ft | 4 kts | 277° |
| 2026-05-08 10:54 | -33.91965 | 150.99244 | 468 ft | 12 kts | 285° |
| 2026-05-08 10:55 | -33.91891 | 150.99163 | 588 ft | 22 kts | 327° |
| 2026-05-08 10:55 | -33.91715 | 150.99060 | 701 ft | 33 kts | 331° |
| 2026-05-08 10:55 | -33.91456 | 150.98972 | 802 ft | 47 kts | 331° |
| 2026-05-08 10:55 | -33.91120 | 150.98808 | 945 ft | 59 kts | 322° |
| 2026-05-08 10:56 | -33.90719 | 150.98594 | 1095 ft | 66 kts | 317° |
| 2026-05-08 10:56 | -33.90355 | 150.98239 | 1160 ft | 69 kts | 298° |
| 2026-05-08 10:56 | -33.89980 | 150.97807 | 1159 ft | 85 kts | 301° |
| 2026-05-08 10:56 | -33.89609 | 150.97146 | 1008 ft | 100 kts | 289° |
| 2026-05-08 10:57 | -33.89307 | 150.96430 | 881 ft | 101 kts | 289° |
| 2026-05-08 10:57 | -33.88885 | 150.95740 | 718 ft | 93 kts | 315° |
| 2026-05-08 10:57 | -33.87996 | 150.96089 | 1013 ft | 82 kts | 72° |
| 2026-05-08 10:58 | -33.87789 | 150.96806 | 1002 ft | 99 kts | 71° |
| 2026-05-08 10:58 | -33.87435 | 150.97554 | 1002 ft | 106 kts | 52° |
| 2026-05-08 10:58 | -33.87001 | 150.98276 | 998 ft | 107 kts | 56° |
| 2026-05-08 10:58 | -33.86588 | 150.99007 | 999 ft | 105 kts | 52° |
| 2026-05-08 10:59 | -33.86142 | 150.99711 | 1001 ft | 106 kts | 47° |
| 2026-05-08 10:59 | -33.85669 | 151.00404 | 994 ft | 107 kts | 47° |
| 2026-05-08 10:59 | -33.85194 | 151.01083 | 998 ft | 105 kts | 48° |
| 2026-05-08 10:59 | -33.84652 | 151.01643 | 998 ft | 101 kts | 11° |
| 2026-05-08 11:00 | -33.83979 | 151.01756 | 998 ft | 96 kts | 352° |
| 2026-05-08 11:00 | -33.83308 | 151.01725 | 1000 ft | 98 kts | 348° |
| 2026-05-08 11:00 | -33.82650 | 151.01765 | 968 ft | 87 kts | 4° |
| 2026-05-08 11:00 | -33.82219 | 151.02109 | 987 ft | 68 kts | 64° |
| 2026-05-08 11:01 | -33.82238 | 151.02556 | 1003 ft | 52 kts | 148° |
| 2026-05-08 11:01 | -33.82575 | 151.02840 | 1016 ft | 73 kts | 162° |
| 2026-05-08 11:01 | -33.83062 | 151.03163 | 1006 ft | 86 kts | 165° |
| 2026-05-08 11:01 | -33.83432 | 151.03366 | 1010 ft | 91 kts | 167° |
| 2026-05-08 11:02 | -33.84028 | 151.03681 | 1008 ft | 96 kts | 166° |
| 2026-05-08 11:02 | -33.85165 | 151.04345 | 1007 ft | 79 kts | 164° |
| 2026-05-08 11:02 | -33.85611 | 151.04641 | 1008 ft | 68 kts | 166° |
| 2026-05-08 11:03 | -33.85993 | 151.04903 | 1009 ft | 60 kts | 168° |
| 2026-05-08 11:03 | -33.86385 | 151.05151 | 1015 ft | 70 kts | 169° |
| 2026-05-08 11:03 | -33.86838 | 151.05437 | 1005 ft | 75 kts | 166° |
| 2026-05-08 11:03 | -33.87316 | 151.05727 | 1004 ft | 79 kts | 166° |
| 2026-05-08 11:04 | -33.87789 | 151.06161 | 1004 ft | 94 kts | 137° |
| 2026-05-08 11:04 | -33.88092 | 151.06890 | 1007 ft | 100 kts | 121° |
| 2026-05-08 11:04 | -33.88336 | 151.07675 | 1006 ft | 100 kts | 120° |
| 2026-05-08 11:04 | -33.88589 | 151.08413 | 1011 ft | 91 kts | 127° |
| 2026-05-08 11:05 | -33.88886 | 151.09041 | 1010 ft | 83 kts | 139° |
| 2026-05-08 11:05 | -33.89206 | 151.09565 | 1006 ft | 71 kts | 151° |
| 2026-05-08 11:05 | -33.89564 | 151.09930 | 1012 ft | 66 kts | 160° |
| 2026-05-08 11:05 | -33.89929 | 151.10278 | 1008 ft | 70 kts | 153° |
| 2026-05-08 11:06 | -33.90268 | 151.10713 | 1007 ft | 72 kts | 149° |
| 2026-05-08 11:06 | -33.90599 | 151.11171 | 1008 ft | 73 kts | 148° |
| 2026-05-08 11:06 | -33.90919 | 151.11630 | 1006 ft | 71 kts | 149° |
| 2026-05-08 11:06 | -33.91230 | 151.12063 | 1007 ft | 64 kts | 161° |
| 2026-05-08 11:07 | -33.91517 | 151.12086 | 1004 ft | 34 kts | 239° |
| 2026-05-08 11:07 | -33.91340 | 151.11823 | 998 ft | 47 kts | 305° |
| 2026-05-08 11:07 | -33.91088 | 151.11734 | 985 ft | 33 kts | 310° |
| 2026-05-08 11:07 | -33.90912 | 151.11700 | 982 ft | 16 kts | 289° |
| 2026-05-08 11:08 | -33.90847 | 151.11661 | 974 ft | 9 kts | 237° |
| 2026-05-08 11:08 | -33.90929 | 151.11587 | 994 ft | 29 kts | 214° |
| 2026-05-08 11:08 | -33.91235 | 151.11691 | 998 ft | 69 kts | 161° |
| 2026-05-08 11:08 | -33.91585 | 151.12210 | 977 ft | 79 kts | 142° |
| 2026-05-08 11:09 | -33.91878 | 151.12722 | 990 ft | 72 kts | 143° |
| 2026-05-08 11:09 | -33.92145 | 151.13224 | 994 ft | 70 kts | 144° |
| 2026-05-08 11:09 | -33.92399 | 151.13729 | 997 ft | 71 kts | 145° |
| 2026-05-08 11:09 | -33.92670 | 151.14230 | 993 ft | 72 kts | 146° |
| 2026-05-08 11:10 | -33.92954 | 151.14733 | 989 ft | 73 kts | 147° |
| 2026-05-08 11:10 | -33.93245 | 151.15184 | 981 ft | 62 kts | 152° |
| 2026-05-08 11:10 | -33.93460 | 151.15578 | 949 ft | 59 kts | 146° |
| 2026-05-08 11:10 | -33.93679 | 151.16024 | 836 ft | 63 kts | 128° |
| 2026-05-08 11:11 | -33.93807 | 151.16564 | 714 ft | 70 kts | 113° |
| 2026-05-08 11:11 | -33.93887 | 151.17147 | 582 ft | 70 kts | 107° |
| 2026-05-08 11:11 | -33.93923 | 151.17693 | 481 ft | 61 kts | 100° |
| 2026-05-08 11:11 | -33.93923 | 151.18162 | 372 ft | 49 kts | 91° |
| 2026-05-08 11:12 | -33.93879 | 151.18488 | 230 ft | 31 kts | 118° |
| 2026-05-08 11:12 | -33.93790 | 151.18700 | 72 ft | 25 kts | 157° |
| 2026-05-08 11:12 | -33.93761 | 151.18828 | 75 ft | 13 kts | 164° |
| 2026-05-08 11:12 | -33.93852 | 151.18955 | 138 ft | 27 kts | 134° |
| 2026-05-08 11:13 | -33.93894 | 151.19060 | 126 ft | 7 kts | 168° |
| 2026-05-08 11:13 | -33.93904 | 151.19084 | 86 ft | 4 kts | 195° |
| 2026-05-08 11:13 | -33.93907 | 151.19082 | 50 ft | 2 kts | 133° |
| 2026-05-08 11:13 | -33.93910 | 151.19086 | 23 ft | 0 kts | 162° |